Time;durP1;ratioP1;P1;durP2;ratioP2;P2;SDS_P1;SDS_P2;PMS_P1;PMS_P2;Temp;Humidity;BMP_temperature;BMP_pressure;BME280_temperature;BME280_humidity;BME280_pressure;Samples;Min_cycle;Max_cycle;Signal;HPM_P1;HPM_P2
2022/11/24 00:01:39;;;;;;;4.05;1.73;;;8.00;99.90;;;;;;4970617;28;20168;-86
2022/11/24 00:04:05;;;;;;;6.70;1.10;;;7.90;99.90;;;;;;4984378;28;20021;-86
2022/11/24 00:06:31;;;;;;;5.82;1.65;;;8.00;99.90;;;;;;4994521;28;20037;-85
2022/11/24 00:08:59;;;;;;;8.77;2.47;;;8.00;99.90;;;;;;4989616;28;20490;-86
2022/11/24 00:11:27;;;;;;;2.80;1.52;;;8.00;99.90;;;;;;4994273;28;20029;-86
2022/11/24 00:13:52;;;;;;;6.80;1.55;;;7.90;99.90;;;;;;5020404;28;20421;-86
2022/11/24 00:16:21;;;;;;;8.45;3.08;;;8.00;99.90;;;;;;5011301;28;20055;-85
2022/11/24 00:18:48;;;;;;;10.70;2.28;;;7.90;99.90;;;;;;5004154;28;20088;-86
2022/11/24 00:21:21;;;;;;;13.65;3.20;;;7.90;99.90;;;;;;5010200;28;20112;-86
2022/11/24 00:23:47;;;;;;;6.15;1.27;;;7.90;99.90;;;;;;4990656;28;20387;-86
2022/11/24 00:26:21;;;;;;;8.10;1.75;;;7.80;99.90;;;;;;4972962;28;20058;-86
2022/11/24 00:28:54;;;;;;;14.60;2.97;;;7.80;99.90;;;;;;4986702;28;20109;-86
2022/11/24 00:31:21;;;;;;;5.53;1.63;;;7.90;99.90;;;;;;4985720;28;20057;-86
2022/11/24 00:33:48;;;;;;;10.30;2.10;;;7.90;99.90;;;;;;4976305;28;20038;-86
2022/11/24 00:36:14;;;;;;;4.97;1.38;;;7.90;99.90;;;;;;4982124;28;20109;-86
2022/11/24 00:38:39;;;;;;;4.88;1.83;;;7.90;99.90;;;;;;4984486;28;20137;-86
2022/11/24 00:41:05;;;;;;;7.47;1.50;;;7.90;99.90;;;;;;4991625;28;20049;-86
2022/11/24 00:43:31;;;;;;;15.57;2.60;;;7.90;99.90;;;;;;4995541;28;20035;-86
2022/11/24 00:45:56;;;;;;;7.25;1.90;;;7.90;99.90;;;;;;5021099;28;20118;-86
2022/11/24 00:48:22;;;;;;;17.27;3.00;;;7.80;99.90;;;;;;4994410;28;20034;-86
2022/11/24 00:51:01;;;;;;;6.85;2.53;;;7.80;99.90;;;;;;5021275;28;20429;-87
2022/11/24 00:53:27;;;;;;;14.85;2.28;;;7.80;99.90;;;;;;4994179;28;20034;-86
2022/11/24 00:55:52;;;;;;;11.25;3.22;;;7.80;99.90;;;;;;4978547;28;20026;-86
2022/11/24 00:58:18;;;;;;;7.45;1.23;;;7.80;99.90;;;;;;4991663;28;20030;-86
2022/11/24 01:00:46;;;;;;;7.07;1.92;;;7.70;99.90;;;;;;5005850;28;20034;-86
2022/11/24 01:03:13;;;;;;;13.77;2.33;;;7.70;99.90;;;;;;4959350;28;20501;-86
2022/11/24 01:05:38;;;;;;;11.68;2.42;;;7.70;99.90;;;;;;4987072;28;20027;-86
2022/11/24 01:08:04;;;;;;;6.03;1.38;;;7.70;99.90;;;;;;4986932;28;20026;-86
2022/11/24 01:10:42;;;;;;;10.63;2.30;;;7.70;99.90;;;;;;4965699;28;20105;-86
2022/11/24 01:13:08;;;;;;;18.85;3.17;;;7.70;99.90;;;;;;4968597;28;20037;-86
2022/11/24 01:15:34;;;;;;;15.30;2.50;;;7.70;99.90;;;;;;4972696;28;20026;-87
2022/11/24 01:18:00;;;;;;;13.10;2.30;;;7.70;99.90;;;;;;5003480;28;20026;-86
2022/11/24 01:20:25;;;;;;;12.07;2.22;;;7.70;99.90;;;;;;5027339;28;20052;-85
2022/11/24 01:22:51;;;;;;;8.70;2.58;;;7.70;99.90;;;;;;4986305;28;20038;-86
2022/11/24 01:25:16;;;;;;;14.05;2.60;;;7.70;99.90;;;;;;4983536;28;20044;-87
2022/11/24 01:27:42;;;;;;;20.08;2.78;;;7.70;99.90;;;;;;5007668;28;20033;-87
2022/11/24 01:30:08;;;;;;;5.82;0.75;;;7.70;99.90;;;;;;4982641;28;20042;-86
2022/11/24 01:32:35;;;;;;;6.72;2.22;;;7.70;99.90;;;;;;4986832;28;20030;-86
2022/11/24 01:35:01;;;;;;;14.07;2.90;;;7.70;99.90;;;;;;5001519;28;20109;-86
2022/11/24 01:37:27;;;;;;;7.10;1.58;;;7.70;99.90;;;;;;4985929;28;20505;-86
2022/11/24 01:39:54;;;;;;;9.05;1.90;;;7.70;99.90;;;;;;4972300;28;20029;-86
2022/11/24 01:42:20;;;;;;;11.45;2.13;;;7.80;99.90;;;;;;4984690;28;20574;-87
2022/11/24 01:44:47;;;;;;;5.68;1.55;;;7.80;99.90;;;;;;4961141;28;20045;-86
2022/11/24 01:47:27;;;;;;;16.75;2.38;;;7.70;99.90;;;;;;4984202;28;20121;-86
2022/11/24 01:49:54;;;;;;;21.98;2.67;;;7.70;99.90;;;;;;4991400;28;20506;-87
2022/11/24 01:52:35;;;;;;;7.18;1.67;;;7.70;99.90;;;;;;4983794;28;20030;-86
2022/11/24 01:55:07;;;;;;;11.60;2.35;;;7.70;99.90;;;;;;4967979;28;20400;-86
2022/11/24 01:57:45;;;;;;;15.80;2.35;;;7.70;99.90;;;;;;4978943;28;20609;-86
2022/11/24 02:00:11;;;;;;;14.35;2.65;;;7.70;99.90;;;;;;4974523;28;20116;-87
2022/11/24 02:02:37;;;;;;;15.60;2.85;;;7.70;99.90;;;;;;4984558;28;20030;-86
2022/11/24 02:05:07;;;;;;;19.73;2.22;;;7.80;99.90;;;;;;4971131;28;20025;-87
2022/11/24 02:07:33;;;;;;;7.10;1.73;;;7.80;99.90;;;;;;4989523;28;20052;-87
2022/11/24 02:10:00;;;;;;;13.35;2.80;;;7.80;99.90;;;;;;4971719;28;20038;-86
2022/11/24 02:12:26;;;;;;;16.33;2.50;;;7.80;99.90;;;;;;4988395;28;20029;-87
2022/11/24 02:14:52;;;;;;;20.10;2.78;;;7.80;99.90;;;;;;4987137;28;20037;-86
2022/11/24 02:17:17;;;;;;;15.50;2.05;;;7.80;99.90;;;;;;4985820;28;20034;-87
2022/11/24 02:19:57;;;;;;;12.57;2.25;;;7.80;99.90;;;;;;4976849;28;20038;-87
2022/11/24 02:22:44;;;;;;;15.95;2.53;;;7.90;99.90;;;;;;4980174;28;21191;-88
2022/11/24 02:25:33;;;;;;;17.35;2.80;;;7.90;99.90;;;;;;5023465;28;20490;-87
2022/11/24 02:27:59;;;;;;;17.02;2.80;;;7.80;99.90;;;;;;5021644;28;20057;-88
2022/11/24 02:30:25;;;;;;;13.38;2.55;;;7.80;99.90;;;;;;5004640;28;20069;-85
2022/11/24 02:32:50;;;;;;;11.20;2.42;;;7.80;99.90;;;;;;4994472;28;20038;-87
2022/11/24 02:35:16;;;;;;;14.95;2.47;;;7.70;99.90;;;;;;4980006;28;20042;-87
2022/11/24 02:37:41;;;;;;;14.70;3.63;;;7.90;99.90;;;;;;4974642;28;20026;-87
2022/11/24 02:40:07;;;;;;;8.90;2.33;;;7.80;99.90;;;;;;5008669;28;20025;-87
2022/11/24 02:42:35;;;;;;;17.10;2.65;;;7.90;99.90;;;;;;4993517;28;20037;-87
2022/11/24 02:45:01;;;;;;;20.75;2.33;;;7.90;99.90;;;;;;4991067;28;20493;-87
2022/11/24 02:47:27;;;;;;;18.10;3.10;;;7.90;99.90;;;;;;4963271;28;20046;-87
2022/11/24 02:49:52;;;;;;;1.77;0.88;;;7.90;99.90;;;;;;5006579;28;20033;-87
2022/11/24 02:52:27;;;;;;;13.70;2.33;;;7.90;99.90;;;;;;4998526;28;21285;-87
2022/11/24 02:54:52;;;;;;;9.25;1.13;;;7.80;99.90;;;;;;4999903;28;20089;-88
2022/11/24 02:57:18;;;;;;;11.70;1.92;;;7.80;99.90;;;;;;4970073;28;20173;-86
2022/11/24 02:59:43;;;;;;;12.90;1.77;;;7.80;99.90;;;;;;4983108;28;20034;-87
2022/11/24 03:02:09;;;;;;;17.15;2.72;;;7.90;99.90;;;;;;4979833;28;20030;-87
2022/11/24 03:04:38;;;;;;;20.70;3.03;;;7.80;99.90;;;;;;4981788;28;20034;-87
2022/11/24 03:07:04;;;;;;;21.15;3.35;;;7.80;99.90;;;;;;4990459;28;20032;-86
2022/11/24 03:09:30;;;;;;;8.45;1.35;;;7.80;99.90;;;;;;4993748;28;20033;-86
2022/11/24 03:11:55;;;;;;;18.15;2.60;;;7.80;99.90;;;;;;4987502;28;20034;-87
2022/11/24 03:14:21;;;;;;;17.88;4.75;;;7.80;99.90;;;;;;5009704;28;20091;-87
2022/11/24 03:16:46;;;;;;;9.02;1.70;;;7.90;99.90;;;;;;5008156;28;20025;-86
2022/11/24 03:19:12;;;;;;;11.52;2.65;;;7.80;99.90;;;;;;5031126;28;20029;-87
2022/11/24 03:21:37;;;;;;;18.92;2.78;;;7.80;99.90;;;;;;4991394;28;20069;-87
2022/11/24 03:24:03;;;;;;;12.52;2.70;;;7.80;99.90;;;;;;4994278;28;20029;-86
2022/11/24 03:26:29;;;;;;;20.20;2.47;;;7.80;99.90;;;;;;5006158;28;20030;-85
2022/11/24 03:29:01;;;;;;;13.00;3.05;;;7.90;99.90;;;;;;5020841;28;20032;-85
2022/11/24 03:31:28;;;;;;;9.10;1.63;;;7.80;99.90;;;;;;4991864;28;20030;-85
2022/11/24 03:33:54;;;;;;;19.88;3.13;;;7.80;99.90;;;;;;4949895;28;20032;-85
2022/11/24 03:36:20;;;;;;;12.95;1.92;;;7.80;99.90;;;;;;4976084;28;20429;-85
2022/11/24 03:38:45;;;;;;;11.32;2.35;;;7.90;99.90;;;;;;4958167;28;20045;-86
2022/11/24 03:41:11;;;;;;;14.40;2.95;;;7.90;99.90;;;;;;4962187;28;20096;-85
2022/11/24 03:43:37;;;;;;;11.25;2.47;;;7.90;99.90;;;;;;4976056;28;20092;-86
2022/11/24 03:46:02;;;;;;;13.00;2.33;;;7.90;99.90;;;;;;4987821;28;20022;-84
2022/11/24 03:48:28;;;;;;;3.42;0.80;;;7.90;99.90;;;;;;4970803;28;20022;-85
2022/11/24 03:50:57;;;;;;;12.65;2.05;;;7.90;99.90;;;;;;4984437;28;20037;-84
2022/11/24 03:53:23;;;;;;;12.00;1.75;;;7.90;99.90;;;;;;4993698;28;20485;-85
2022/11/24 03:55:49;;;;;;;14.30;2.20;;;7.90;99.90;;;;;;4984255;28;20477;-84
2022/11/24 03:58:14;;;;;;;10.75;2.13;;;7.80;99.90;;;;;;4995094;28;20026;-84
2022/11/24 04:00:40;;;;;;;16.00;2.78;;;7.80;99.90;;;;;;5010830;28;20430;-84
2022/11/24 04:03:23;;;;;;;15.75;2.08;;;7.80;99.90;;;;;;4965759;28;20505;-84
2022/11/24 04:05:49;;;;;;;15.35;2.80;;;7.80;99.90;;;;;;4983890;28;20084;-85
2022/11/24 04:08:25;;;;;;;14.32;2.88;;;7.80;99.90;;;;;;4974541;28;20022;-84
2022/11/24 04:10:51;;;;;;;11.57;1.98;;;7.80;99.90;;;;;;4999068;28;20023;-85
2022/11/24 04:13:17;;;;;;;11.70;2.60;;;7.80;99.90;;;;;;4989698;28;20076;-87
2022/11/24 04:15:43;;;;;;;6.85;1.73;;;7.90;99.90;;;;;;4971851;28;20374;-86
2022/11/24 04:18:09;;;;;;;5.85;1.83;;;7.90;99.90;;;;;;4983704;28;20061;-85
2022/11/24 04:20:35;;;;;;;15.00;2.88;;;7.90;99.90;;;;;;4969381;28;20038;-86
2022/11/24 04:23:01;;;;;;;13.27;2.05;;;7.90;99.90;;;;;;4982896;28;20034;-86
2022/11/24 04:25:26;;;;;;;15.18;3.05;;;7.90;99.90;;;;;;4969883;28;20054;-86
2022/11/24 04:27:53;;;;;;;15.65;3.45;;;8.00;99.90;;;;;;4986243;28;20062;-86
2022/11/24 04:30:37;;;;;;;20.90;3.15;;;8.00;99.90;;;;;;4947265;28;20042;-87
2022/11/24 04:33:03;;;;;;;16.88;3.33;;;7.90;99.90;;;;;;4959057;28;20026;-87
2022/11/24 04:35:34;;;;;;;14.80;2.42;;;8.00;99.90;;;;;;4960607;28;20474;-87
2022/11/24 04:38:03;;;;;;;12.00;2.72;;;7.90;99.90;;;;;;4947768;28;20457;-87
2022/11/24 04:40:31;;;;;;;16.58;3.05;;;8.00;99.90;;;;;;4958028;28;20037;-87
2022/11/24 04:43:21;;;;;;;14.07;3.00;;;8.10;99.90;;;;;;4973579;28;20046;-87
2022/11/24 04:45:47;;;;;;;7.68;1.60;;;8.00;99.90;;;;;;4973073;28;20113;-87
2022/11/24 04:48:21;;;;;;;21.20;2.70;;;8.10;99.90;;;;;;4981942;28;20108;-87
2022/11/24 04:50:46;;;;;;;11.57;1.92;;;8.10;99.90;;;;;;4989001;28;20045;-88
2022/11/24 04:53:14;;;;;;;12.35;1.90;;;8.10;99.90;;;;;;4972938;28;20030;-86
2022/11/24 04:55:41;;;;;;;19.75;2.78;;;8.10;99.90;;;;;;4985275;28;20061;-87
2022/11/24 04:58:08;;;;;;;14.02;3.08;;;8.10;99.90;;;;;;4968230;28;20033;-87
2022/11/24 05:00:43;;;;;;;11.70;2.35;;;8.10;99.90;;;;;;4991768;28;20038;-88
2022/11/24 05:03:35;;;;;;;;;;;;;;;;;;;;;
2022/11/24 05:06:01;;;;;;;15.35;2.38;;;8.10;99.90;;;;;;4994015;28;20290;-85
2022/11/24 05:08:27;;;;;;;14.52;2.63;;;8.10;99.90;;;;;;4974536;28;20415;-84
2022/11/24 05:10:54;;;;;;;27.60;3.63;;;8.10;99.90;;;;;;4978201;28;20034;-85
2022/11/24 05:13:19;;;;;;;9.20;1.90;;;8.10;99.90;;;;;;4942257;28;20030;-85
2022/11/24 05:15:48;;;;;;;14.35;2.60;;;8.10;99.90;;;;;;4963682;28;20029;-85
2022/11/24 05:18:33;;;;;;;11.32;2.53;;;8.10;99.90;;;;;;4957996;28;20030;-85
2022/11/24 05:20:59;;;;;;;21.10;4.17;;;8.10;99.90;;;;;;4968288;28;20033;-85
2022/11/24 05:23:33;;;;;;;19.58;3.42;;;8.10;99.90;;;;;;4960204;28;20610;-85
2022/11/24 05:26:00;;;;;;;12.55;2.00;;;8.10;99.90;;;;;;4961080;28;20050;-85
2022/11/24 05:28:25;;;;;;;16.00;2.30;;;8.20;99.90;;;;;;4945895;28;20042;-85
2022/11/24 05:30:53;;;;;;;15.93;2.47;;;8.10;99.90;;;;;;4968220;28;20025;-85
2022/11/24 05:33:19;;;;;;;14.02;2.63;;;8.20;99.90;;;;;;5002568;28;20061;-86
2022/11/24 05:35:47;;;;;;;17.50;3.47;;;8.10;99.90;;;;;;4971474;28;20458;-85
2022/11/24 05:38:14;;;;;;;17.75;3.50;;;8.10;99.90;;;;;;5012937;28;20037;-85
2022/11/24 05:40:39;;;;;;;25.10;2.90;;;8.10;99.90;;;;;;4994247;28;20042;-85
2022/11/24 05:43:10;;;;;;;13.82;3.17;;;8.10;99.90;;;;;;4985156;28;20129;-86
2022/11/24 05:45:36;;;;;;;19.63;3.10;;;8.10;99.90;;;;;;4972872;28;20038;-85
2022/11/24 05:48:12;;;;;;;15.45;2.35;;;8.10;99.90;;;;;;4983045;28;20021;-85
2022/11/24 05:50:38;;;;;;;16.38;2.08;;;8.10;99.90;;;;;;5012358;28;20060;-85
2022/11/24 05:53:21;;;;;;;15.27;2.13;;;8.10;99.90;;;;;;4994238;28;20049;-85
2022/11/24 05:55:56;;;;;;;12.13;1.50;;;8.10;99.90;;;;;;4999269;28;20041;-85
2022/11/24 05:58:22;;;;;;;23.33;3.50;;;8.10;99.90;;;;;;4951594;28;20109;-85
2022/11/24 06:00:54;;;;;;;13.30;2.30;;;8.10;99.90;;;;;;4984684;28;20129;-85
2022/11/24 06:03:19;;;;;;;19.92;2.83;;;8.10;99.90;;;;;;4959217;28;20108;-85
2022/11/24 06:05:45;;;;;;;10.45;1.98;;;8.20;99.90;;;;;;4975423;28;20732;-84
2022/11/24 06:08:14;;;;;;;17.48;2.72;;;8.10;99.90;;;;;;4992330;28;20505;-85
2022/11/24 06:10:40;;;;;;;11.50;1.92;;;8.20;99.90;;;;;;4996629;28;20030;-85
2022/11/24 06:13:17;;;;;;;21.15;2.80;;;8.20;99.90;;;;;;4972031;28;20034;-85
2022/11/24 06:15:43;;;;;;;24.75;3.35;;;8.20;99.90;;;;;;4940769;28;20040;-85
2022/11/24 06:18:45;;;;;;;16.10;2.28;;;8.10;99.90;;;;;;4971086;28;20025;-85
2022/11/24 06:21:16;;;;;;;10.43;2.55;;;8.20;99.90;;;;;;4993274;28;20437;-85
2022/11/24 06:23:59;;;;;;;12.07;1.50;;;8.20;99.90;;;;;;5021995;28;20037;-86
2022/11/24 06:26:55;;;;;;;10.40;2.08;;;8.20;99.90;;;;;;4959945;28;20038;-85
2022/11/24 06:29:20;;;;;;;11.15;2.85;;;8.20;99.90;;;;;;4996994;28;20037;-85
2022/11/24 06:32:26;;;;;;;18.35;2.58;;;8.20;99.90;;;;;;4977986;28;20076;-85
2022/11/24 06:34:56;;;;;;;14.07;2.28;;;8.20;99.90;;;;;;4989091;28;20029;-85
2022/11/24 06:37:54;;;;;;;14.43;2.95;;;8.20;99.90;;;;;;4922127;28;20027;-84
2022/11/24 06:40:20;;;;;;;15.88;2.00;;;8.20;99.90;;;;;;4981071;28;20444;-85
2022/11/24 06:42:50;;;;;;;19.02;3.08;;;8.20;99.90;;;;;;4957834;28;20030;-85
2022/11/24 06:45:19;;;;;;;7.93;2.13;;;8.20;99.90;;;;;;4947491;28;20031;-85
2022/11/24 06:51:51;;;;;;;21.52;2.55;;;8.10;99.90;;;;;;5007988;28;20037;-85
2022/11/24 06:54:44;;;;;;;19.52;2.67;;;8.10;99.90;;;;;;4983917;28;20033;-87
2022/11/24 06:57:37;;;;;;;15.45;2.08;;;8.10;99.90;;;;;;4980486;28;20298;-88
2022/11/24 07:00:13;;;;;;;12.68;2.50;;;8.10;99.90;;;;;;4974666;28;20030;-87
2022/11/24 07:02:56;;;;;;;14.15;2.28;;;8.10;99.90;;;;;;4964629;28;20374;-88
2022/11/24 07:05:24;;;;;;;17.65;1.90;;;8.10;99.90;;;;;;4986938;28;20037;-88
2022/11/24 07:08:11;;;;;;;14.50;2.78;;;8.00;99.90;;;;;;5003790;28;20034;-87
2022/11/24 07:10:47;;;;;;;6.13;1.00;;;8.00;99.90;;;;;;4978839;28;20030;-89
2022/11/24 07:13:15;;;;;;;13.80;1.80;;;8.00;99.90;;;;;;4941593;28;20116;-87
2022/11/24 07:16:18;;;;;;;16.05;3.15;;;8.10;99.90;;;;;;4994175;28;20068;-87
2022/11/24 07:18:56;;;;;;;6.07;1.25;;;8.10;99.90;;;;;;5017765;28;20116;-87
2022/11/24 07:21:31;;;;;;;7.15;2.03;;;7.90;99.90;;;;;;4975101;28;20037;-88
2022/11/24 07:24:03;;;;;;;12.55;2.45;;;8.00;99.90;;;;;;4961023;28;20041;-87
2022/11/24 07:26:39;;;;;;;9.38;2.17;;;8.10;99.90;;;;;;4969244;28;20044;-87
2022/11/24 07:29:10;;;;;;;6.40;1.85;;;8.00;99.90;;;;;;4989130;28;20045;-88
2022/11/24 07:31:38;;;;;;;10.35;1.70;;;8.00;99.90;;;;;;4971883;28;20040;-88
2022/11/24 07:34:04;;;;;;;13.13;2.25;;;8.00;99.90;;;;;;4946642;28;20526;-88
2022/11/24 07:36:29;;;;;;;6.82;1.25;;;8.10;99.90;;;;;;4988342;28;20091;-86
2022/11/24 07:39:20;;;;;;;6.88;1.30;;;8.10;99.90;;;;;;4981456;28;20115;-85
2022/11/24 07:41:48;;;;;;;1.33;1.00;;;8.20;99.90;;;;;;4971686;28;20688;-85
2022/11/24 07:44:36;;;;;;;7.90;1.60;;;8.20;99.90;;;;;;4973075;28;20030;-85
2022/11/24 07:47:07;;;;;;;4.20;1.02;;;8.20;99.90;;;;;;4987237;28;20076;-85
2022/11/24 07:50:20;;;;;;;9.70;1.35;;;8.20;99.90;;;;;;4932224;28;20034;-86
2022/11/24 07:53:51;;;;;;;5.72;1.25;;;8.20;99.90;;;;;;5015908;28;20591;-86
2022/11/24 07:57:13;;;;;;;2.83;0.38;;;8.30;99.90;;;;;;4995112;28;20045;-86
2022/11/24 08:00:22;;;;;;;5.50;0.85;;;8.40;99.90;;;;;;5024161;28;20048;-85
2022/11/24 08:02:50;;;;;;;5.38;0.90;;;8.40;99.90;;;;;;5010598;28;20042;-85
2022/11/24 08:05:16;;;;;;;0.90;0.50;;;8.40;99.90;;;;;;4983186;28;20045;-85
2022/11/24 08:07:44;;;;;;;3.45;0.98;;;8.40;99.90;;;;;;4964024;28;20045;-84
2022/11/24 08:10:22;;;;;;;7.32;1.90;;;8.40;99.90;;;;;;4971252;28;20721;-84
2022/11/24 08:13:09;;;;;;;3.08;0.77;;;8.40;99.90;;;;;;4980700;28;20045;-85
2022/11/24 08:15:48;;;;;;;4.80;1.70;;;8.40;99.90;;;;;;4976049;28;20130;-85
2022/11/24 08:18:26;;;;;;;3.08;0.57;;;8.40;99.90;;;;;;4972935;28;20134;-85
2022/11/24 08:20:52;;;;;;;10.82;1.02;;;8.30;99.90;;;;;;4974445;28;20038;-85
2022/11/24 08:23:17;;;;;;;6.30;0.63;;;8.30;99.90;;;;;;4992986;28;20391;-85
2022/11/24 08:25:45;;;;;;;1.75;0.50;;;8.50;99.90;;;;;;4973173;28;20041;-85
2022/11/24 08:28:41;;;;;;;1.90;0.50;;;8.40;99.90;;;;;;4985177;28;20458;-85
2022/11/24 08:34:05;;;;;;;4.03;0.70;;;8.40;99.90;;;;;;5004426;28;20034;-85
2022/11/24 08:36:31;;;;;;;2.70;0.40;;;8.50;99.90;;;;;;4946035;28;20516;-85
2022/11/24 08:42:21;;;;;;;7.38;0.95;;;8.50;99.90;;;;;;4988169;28;20064;-84
2022/11/24 08:47:36;;;;;;;2.38;0.50;;;8.60;99.90;;;;;;4957506;28;20513;-85
2022/11/24 08:50:02;;;;;;;5.50;0.95;;;8.50;99.90;;;;;;4984131;28;20125;-84
2022/11/24 08:52:28;;;;;;;3.65;0.50;;;8.60;99.90;;;;;;4985275;28;20033;-84
2022/11/24 08:54:56;;;;;;;3.00;0.82;;;8.50;99.90;;;;;;4988632;28;20421;-85
2022/11/24 08:57:38;;;;;;;1.65;0.32;;;8.50;99.90;;;;;;4942954;28;20046;-85
2022/11/24 09:00:21;;;;;;;3.85;0.50;;;8.40;99.90;;;;;;4945305;28;20114;-84
2022/11/24 09:02:57;;;;;;;1.50;0.55;;;8.50;99.90;;;;;;4944734;28;20034;-85
2022/11/24 09:05:25;;;;;;;7.72;1.38;;;8.40;99.90;;;;;;5003293;28;20026;-85
2022/11/24 09:07:51;;;;;;;9.50;1.10;;;8.40;99.90;;;;;;4972062;28;20034;-84
2022/11/24 09:10:16;;;;;;;4.28;1.23;;;8.40;99.90;;;;;;4984662;28;20041;-84
2022/11/24 09:12:45;;;;;;;8.02;1.08;;;8.40;99.90;;;;;;4969957;28;20022;-84
2022/11/24 09:15:15;;;;;;;6.45;0.82;;;8.40;99.90;;;;;;4987016;28;20034;-85
2022/11/24 09:17:41;;;;;;;0.30;0.22;;;8.40;99.90;;;;;;4995641;28;20026;-84
2022/11/24 09:20:08;;;;;;;3.33;1.20;;;8.50;99.90;;;;;;5007445;28;20359;-84
2022/11/24 09:22:34;;;;;;;4.72;1.08;;;8.40;99.90;;;;;;5022487;28;20048;-84
2022/11/24 09:25:00;;;;;;;4.13;0.60;;;8.40;99.90;;;;;;4986075;28;20033;-84
2022/11/24 09:27:26;;;;;;;5.65;1.02;;;8.40;99.90;;;;;;4971259;28;20034;-84
2022/11/24 09:29:52;;;;;;;6.22;0.95;;;8.50;99.90;;;;;;5018762;28;20081;-84
2022/11/24 09:32:17;;;;;;;7.53;1.70;;;8.50;99.90;;;;;;5006670;28;20025;-84
2022/11/24 09:34:43;;;;;;;2.60;0.40;;;8.50;99.90;;;;;;5020128;28;20037;-84
2022/11/24 09:37:09;;;;;;;4.13;0.82;;;8.60;99.90;;;;;;4981010;28;20030;-84
2022/11/24 09:39:34;;;;;;;2.97;1.05;;;8.70;99.90;;;;;;4992399;28;20134;-84
2022/11/24 09:42:08;;;;;;;7.20;1.52;;;8.70;99.90;;;;;;4985207;28;20042;-84
2022/11/24 09:44:46;;;;;;;3.42;0.57;;;8.70;99.90;;;;;;4997191;28;20034;-85
2022/11/24 09:47:17;;;;;;;9.15;1.05;;;8.90;99.90;;;;;;5000421;28;20030;-84
2022/11/24 09:49:59;;;;;;;1.00;0.20;;;8.90;99.90;;;;;;4983798;28;20034;-84
2022/11/24 09:52:47;;;;;;;10.63;2.20;;;9.00;99.90;;;;;;4989432;28;20034;-84
2022/11/24 09:55:39;;;;;;;4.65;1.23;;;9.00;99.90;;;;;;5017835;28;20539;-84
2022/11/24 09:58:26;;;;;;;3.78;0.93;;;9.10;99.90;;;;;;4990685;28;20041;-85
2022/11/24 10:00:52;;;;;;;5.28;1.65;;;9.10;99.90;;;;;;5005976;28;20022;-85
2022/11/24 10:03:39;;;;;;;8.98;1.33;;;9.10;99.90;;;;;;5004041;28;20053;-84
2022/11/24 10:06:33;;;;;;;4.13;0.88;;;9.20;99.90;;;;;;4999013;28;20034;-84
2022/11/24 10:09:23;;;;;;;5.53;1.92;;;9.20;99.90;;;;;;5010347;28;20067;-84
2022/11/24 10:12:07;;;;;;;8.73;1.58;;;9.30;99.90;;;;;;5006578;28;20030;-85
2022/11/24 10:14:49;;;;;;;8.02;1.77;;;9.30;99.90;;;;;;5007404;28;20034;-84
2022/11/24 10:17:52;;;;;;;9.07;1.95;;;9.40;99.90;;;;;;5004952;28;20033;-85
2022/11/24 10:20:58;;;;;;;5.47;0.98;;;9.40;99.90;;;;;;5000474;28;20034;-84
2022/11/24 10:24:02;;;;;;;6.95;1.77;;;9.50;99.90;;;;;;4987508;28;20482;-84
2022/11/24 10:26:38;;;;;;;13.13;1.65;;;9.60;99.90;;;;;;4996410;28;20092;-84
2022/11/24 10:29:16;;;;;;;;;;;9.60;99.90;;;;;;4975898;28;20116;-84
2022/11/24 10:31:42;;;;;;;9.32;1.40;;;9.80;99.90;;;;;;4998835;28;20395;-85
2022/11/24 10:34:13;;;;;;;9.50;1.38;;;9.80;99.90;;;;;;4969454;28;20026;-84
2022/11/24 10:36:47;;;;;;;2.28;0.88;;;9.90;99.90;;;;;;5000206;28;20439;-84
2022/11/24 10:39:53;;;;;;;8.82;1.67;;;10.10;99.90;;;;;;4986035;28;20022;-85
2022/11/24 10:42:37;;;;;;;12.07;1.85;;;10.10;99.90;;;;;;5011387;28;20037;-85
2022/11/24 10:45:18;;;;;;;9.65;1.55;;;10.10;99.90;;;;;;4993638;28;20025;-85
2022/11/24 10:47:44;;;;;;;5.13;0.57;;;10.20;99.90;;;;;;4993175;28;20034;-85
2022/11/24 10:50:22;;;;;;;15.27;1.90;;;10.30;99.90;;;;;;4988364;28;20045;-84
2022/11/24 10:53:14;;;;;;;3.67;1.15;;;10.40;99.90;;;;;;4995275;28;20085;-84
2022/11/24 10:55:55;;;;;;;3.40;0.88;;;10.30;99.90;;;;;;5004513;28;20779;-85
2022/11/24 10:58:23;;;;;;;9.48;1.65;;;10.40;99.90;;;;;;5022562;28;20043;-84
2022/11/24 11:00:55;;;;;;;5.22;1.13;;;10.50;99.90;;;;;;4989767;28;20030;-85
2022/11/24 11:03:22;;;;;;;13.88;2.45;;;10.60;99.90;;;;;;4980540;28;20502;-85
2022/11/24 11:06:08;;;;;;;11.65;1.75;;;10.70;99.90;;;;;;4968375;28;20022;-85
2022/11/24 11:08:34;;;;;;;10.10;1.13;;;10.80;99.90;;;;;;4993247;28;20040;-85
2022/11/24 11:11:21;;;;;;;5.03;1.42;;;10.80;99.90;;;;;;5006521;28;20029;-85
2022/11/24 11:13:52;;;;;;;7.55;0.60;;;10.90;99.90;;;;;;4987781;28;20034;-85
2022/11/24 11:16:37;;;;;;;4.55;0.80;;;10.90;99.90;;;;;;4977422;28;20038;-85
2022/11/24 11:19:35;;;;;;;3.85;1.30;;;10.90;99.90;;;;;;4995263;28;20081;-86
2022/11/24 11:22:05;;;;;;;2.63;1.08;;;11.00;99.90;;;;;;4980407;28;20042;-85
2022/11/24 11:24:31;;;;;;;6.70;1.25;;;10.90;99.90;;;;;;4990275;28;20076;-85
2022/11/24 11:27:01;;;;;;;10.55;1.60;;;10.90;99.90;;;;;;4997250;28;20057;-85
2022/11/24 11:29:27;;;;;;;8.02;1.38;;;11.00;99.90;;;;;;4992832;28;20096;-85
2022/11/24 11:32:03;;;;;;;13.20;1.52;;;11.10;99.90;;;;;;4990821;28;20030;-85
2022/11/24 11:34:34;;;;;;;;;;;11.10;99.90;;;;;;4970545;28;20109;-85
2022/11/24 11:37:00;;;;;;;8.88;1.92;;;11.20;99.90;;;;;;4993179;28;19956;-85
2022/11/24 11:39:32;;;;;;;10.15;1.60;;;11.30;99.90;;;;;;5015974;28;20116;-85
2022/11/24 11:42:06;;;;;;;7.35;1.88;;;11.30;99.90;;;;;;5006900;28;20049;-85
2022/11/24 11:44:39;;;;;;;15.90;2.95;;;11.40;99.90;;;;;;4980231;28;20034;-85
2022/11/24 11:47:37;;;;;;;11.45;1.77;;;11.40;99.90;;;;;;5015149;28;20477;-85
2022/11/24 11:50:10;;;;;;;9.68;1.23;;;11.40;99.90;;;;;;5002459;28;20044;-85
2022/11/24 11:53:05;;;;;;;9.80;1.73;;;11.50;99.90;;;;;;4986531;28;20493;-85
2022/11/24 11:55:42;;;;;;;5.57;1.42;;;11.50;99.90;;;;;;5023384;28;20030;-84
2022/11/24 11:58:25;;;;;;;5.97;1.52;;;11.50;99.90;;;;;;5005317;28;20025;-85
2022/11/24 12:01:18;;;;;;;9.57;1.80;;;11.50;99.90;;;;;;5021927;28;20112;-85
2022/11/24 12:03:58;;;;;;;11.85;1.98;;;11.50;99.90;;;;;;4988439;28;20038;-85
2022/11/24 12:06:35;;;;;;;7.93;1.50;;;11.40;99.90;;;;;;4998521;28;20026;-85
2022/11/24 12:10:04;;;;;;;9.45;0.90;;;11.50;99.90;;;;;;4991891;28;20568;-85
2022/11/24 12:13:07;;;;;;;9.25;1.42;;;11.50;99.90;;;;;;5020404;28;20105;-85
2022/11/24 12:15:40;;;;;;;13.93;2.00;;;11.40;99.90;;;;;;5008850;28;20105;-84
2022/11/24 12:18:31;;;;;;;7.68;2.05;;;11.40;99.90;;;;;;4999990;28;20473;-84
2022/11/24 12:21:10;;;;;;;5.25;1.25;;;11.40;99.90;;;;;;5003448;28;20033;-84
2022/11/24 12:23:47;;;;;;;5.68;1.35;;;11.50;99.90;;;;;;5010080;28;20026;-84
2022/11/24 12:26:42;;;;;;;9.93;1.95;;;11.60;99.90;;;;;;4991744;28;20100;-84
2022/11/24 12:29:26;;;;;;;8.55;1.30;;;11.60;99.90;;;;;;5022698;28;20385;-84
2022/11/24 12:32:17;;;;;;;8.40;1.35;;;11.70;99.90;;;;;;5029343;28;20132;-84
2022/11/24 12:34:58;;;;;;;2.63;0.95;;;11.80;99.90;;;;;;5020104;28;20033;-84
2022/11/24 12:38:01;;;;;;;12.77;2.15;;;11.90;99.90;;;;;;4997435;28;20033;-84
2022/11/24 12:40:37;;;;;;;11.73;1.77;;;11.90;99.90;;;;;;5001994;28;20026;-84
2022/11/24 12:43:15;;;;;;;12.70;1.75;;;12.00;99.90;;;;;;4988327;28;20034;-84
2022/11/24 12:45:50;;;;;;;11.00;2.00;;;11.90;99.90;;;;;;5006171;28;20034;-84
2022/11/24 12:48:31;;;;;;;13.07;2.72;;;11.90;99.90;;;;;;5004184;28;20066;-84
2022/11/24 12:50:57;;;;;;;21.20;4.13;;;12.00;99.90;;;;;;4971615;28;20530;-84
2022/11/24 12:53:33;;;;;;;5.97;1.23;;;11.90;99.90;;;;;;4986916;28;20094;-85
2022/11/24 12:56:06;;;;;;;8.18;1.38;;;11.90;99.90;;;;;;4983010;28;20030;-84
2022/11/24 12:59:16;;;;;;;13.50;2.20;;;12.10;99.90;;;;;;4970019;28;20089;-84
2022/11/24 13:02:22;;;;;;;7.50;1.85;;;11.80;99.90;;;;;;5011434;28;20041;-84
2022/11/24 13:05:16;;;;;;;11.13;1.70;;;11.80;99.90;;;;;;4962243;28;20490;-84
2022/11/24 13:07:42;;;;;;;10.15;1.83;;;11.90;99.90;;;;;;5004212;28;20033;-84
2022/11/24 13:10:23;;;;;;;10.23;1.38;;;11.80;99.90;;;;;;5022600;28;20033;-84
2022/11/24 13:13:01;;;;;;;9.02;2.13;;;11.90;99.90;;;;;;5033552;28;20405;-84
2022/11/24 13:15:27;;;;;;;11.90;2.05;;;11.90;99.90;;;;;;5011748;28;20496;-84
2022/11/24 13:17:53;;;;;;;12.60;2.50;;;12.00;99.90;;;;;;5008318;28;20758;-84
2022/11/24 13:20:18;;;;;;;8.43;1.63;;;12.10;99.90;;;;;;5026126;28;20046;-84
2022/11/24 13:22:48;;;;;;;12.93;2.63;;;12.40;99.90;;;;;;5027849;28;20041;-84
2022/11/24 13:25:18;;;;;;;6.63;1.60;;;12.50;99.90;;;;;;4990036;28;20045;-84
2022/11/24 13:27:48;;;;;;;6.13;1.35;;;12.50;99.90;;;;;;5022428;28;20032;-84
2022/11/24 13:30:32;;;;;;;12.10;2.10;;;12.60;99.90;;;;;;5011186;28;20497;-84
2022/11/24 13:33:09;;;;;;;13.40;1.63;;;12.60;99.90;;;;;;5035534;28;20018;-85
2022/11/24 13:35:35;;;;;;;11.80;1.95;;;12.60;99.90;;;;;;5023263;28;20034;-84
2022/11/24 13:38:00;;;;;;;11.15;2.58;;;12.70;99.90;;;;;;5021986;28;20037;-84